createdAt,value
2023-02-12T00:02:25.195Z,91.10
2023-02-12T00:04:52.295Z,91.10
2023-02-12T00:07:19.067Z,91.10
2023-02-12T00:09:45.841Z,91.20
2023-02-12T00:12:12.739Z,91.00
2023-02-12T00:14:39.695Z,91.00
2023-02-12T00:17:06.444Z,91.30
2023-02-12T00:19:33.263Z,91.20
2023-02-12T00:22:00.023Z,91.30
2023-02-12T00:24:27.916Z,91.20
2023-02-12T00:26:54.897Z,91.30
2023-02-12T00:29:21.736Z,91.30
2023-02-12T00:31:48.603Z,91.10
2023-02-12T00:34:15.498Z,91.20
2023-02-12T00:36:42.265Z,91.20
2023-02-12T00:39:10.407Z,91.40
2023-02-12T00:41:37.206Z,91.30
2023-02-12T00:44:04.006Z,91.40
2023-02-12T00:46:30.879Z,91.40
2023-02-12T00:48:57.806Z,91.40
2023-02-12T00:51:24.601Z,91.40
2023-02-12T00:53:51.328Z,91.40
2023-02-12T00:56:18.140Z,91.40
2023-02-12T00:58:44.901Z,91.40
2023-02-12T01:01:11.926Z,91.50
2023-02-12T01:03:38.949Z,91.40
2023-02-12T01:06:06.201Z,91.30
2023-02-12T01:08:33.045Z,91.30
2023-02-12T01:11:01.274Z,91.40
2023-02-12T01:13:28.920Z,91.40
2023-02-12T01:16:09.015Z,91.50
2023-02-12T01:18:36.623Z,91.40
2023-02-12T01:21:08.810Z,91.30
2023-02-12T01:23:35.648Z,91.30
2023-02-12T01:26:02.416Z,91.20
2023-02-12T01:28:29.394Z,91.50
2023-02-12T01:30:56.299Z,91.60
2023-02-12T01:33:23.039Z,91.90
2023-02-12T01:35:49.822Z,91.50
2023-02-12T01:38:16.616Z,91.50
2023-02-12T01:40:43.396Z,91.50
2023-02-12T01:43:12.066Z,91.30
2023-02-12T01:45:45.394Z,91.40
2023-02-12T01:48:13.751Z,91.30
2023-02-12T01:50:41.692Z,91.40
2023-02-12T01:53:08.669Z,91.40
2023-02-12T01:55:35.556Z,91.40
2023-02-12T01:58:02.658Z,91.40
2023-02-12T02:00:29.503Z,91.50
2023-02-12T02:02:57.691Z,91.50
2023-02-12T02:05:29.233Z,91.40
2023-02-12T02:07:56.273Z,91.80
2023-02-12T02:10:23.037Z,91.50
2023-02-12T02:13:08.171Z,91.60
2023-02-12T02:15:36.774Z,91.60
2023-02-12T02:18:24.559Z,91.50
2023-02-12T02:20:51.319Z,91.80
2023-02-12T02:23:18.081Z,91.60
2023-02-12T02:26:03.476Z,91.70
2023-02-12T02:28:53.206Z,91.50
2023-02-12T02:31:23.095Z,91.50
2023-02-12T02:33:58.464Z,91.60
2023-02-12T02:36:32.261Z,91.70
2023-02-12T02:39:34.489Z,91.70
2023-02-12T02:42:14.562Z,91.70
2023-02-12T02:44:46.903Z,91.70
2023-02-12T02:47:14.433Z,91.50
2023-02-12T02:49:44.479Z,91.60
2023-02-12T02:52:14.800Z,91.60
2023-02-12T02:54:52.872Z,91.50
2023-02-12T02:57:22.040Z,91.70
2023-02-12T02:59:52.536Z,91.50
2023-02-12T03:02:25.216Z,91.60
2023-02-12T03:04:54.754Z,91.50
2023-02-12T03:07:42.386Z,91.60
2023-02-12T03:10:22.017Z,91.70
2023-02-12T03:12:54.557Z,91.60
2023-02-12T03:15:32.744Z,91.60
2023-02-12T03:18:01.636Z,91.70
2023-02-12T03:20:30.417Z,91.70
2023-02-12T03:23:10.910Z,91.70
2023-02-12T03:25:51.116Z,91.60
2023-02-12T03:28:22.816Z,91.80
2023-02-12T03:30:52.745Z,91.70
2023-02-12T03:33:37.995Z,91.70
2023-02-12T03:36:12.594Z,91.70
2023-02-12T03:38:43.101Z,91.60
2023-02-12T03:41:13.860Z,91.50
2023-02-12T03:43:54.616Z,91.70
2023-02-12T03:46:21.355Z,91.60
2023-02-12T03:49:02.357Z,91.90
2023-02-12T03:51:32.269Z,91.90
2023-02-12T03:53:59.125Z,91.70
2023-02-12T03:56:28.790Z,91.70
2023-02-12T03:58:55.598Z,91.70
2023-02-12T04:01:22.491Z,91.70
2023-02-12T04:03:49.355Z,91.50
2023-02-12T04:06:20.710Z,91.70
2023-02-12T04:08:47.557Z,91.70
2023-02-12T04:11:14.360Z,91.60
2023-02-12T04:13:59.763Z,91.70
2023-02-12T04:16:41.961Z,91.90
2023-02-12T04:19:10.841Z,91.70
2023-02-12T04:21:49.482Z,91.80
2023-02-12T04:24:33.621Z,91.60
2023-02-12T04:27:05.544Z,91.80
2023-02-12T04:29:35.289Z,92.00
2023-02-12T04:32:07.664Z,92.10
2023-02-12T04:34:52.923Z,91.90
2023-02-12T04:37:22.905Z,91.80
2023-02-12T04:39:49.972Z,91.80
2023-02-12T04:42:16.755Z,91.80
2023-02-12T04:44:44.102Z,91.80
2023-02-12T04:47:14.873Z,92.10
2023-02-12T04:49:41.704Z,92.10
2023-02-12T04:52:08.893Z,92.40
2023-02-12T04:54:35.668Z,92.30
2023-02-12T04:57:02.520Z,92.30
2023-02-12T04:59:29.311Z,91.90
2023-02-12T05:01:56.109Z,91.90
2023-02-12T05:04:22.847Z,92.00
2023-02-12T05:06:49.634Z,91.90
2023-02-12T05:09:17.813Z,91.90
2023-02-12T05:11:44.548Z,91.90
2023-02-12T05:14:11.616Z,91.90
2023-02-12T05:16:38.380Z,91.90
2023-02-12T05:19:05.167Z,92.00
2023-02-12T05:21:32.011Z,92.10
2023-02-12T05:23:58.809Z,91.90
2023-02-12T05:26:25.671Z,92.00
2023-02-12T05:28:52.530Z,92.00
2023-02-12T05:31:21.502Z,92.00
2023-02-12T05:33:49.045Z,91.90
2023-02-12T05:36:17.920Z,91.90
2023-02-12T05:38:44.737Z,92.00
2023-02-12T05:41:12.744Z,91.90
2023-02-12T05:43:39.737Z,92.10
2023-02-12T05:46:07.211Z,92.00
2023-02-12T05:48:34.501Z,91.90
2023-02-12T05:51:12.208Z,92.00
2023-02-12T05:53:39.562Z,92.20
2023-02-12T05:56:16.550Z,91.90
2023-02-12T05:58:44.712Z,91.90
2023-02-12T06:01:13.510Z,91.90
2023-02-12T06:03:40.561Z,91.90
2023-02-12T06:06:07.447Z,91.90
2023-02-12T06:08:34.332Z,91.90
2023-02-12T06:11:02.466Z,92.00
2023-02-12T06:13:29.786Z,92.10
2023-02-12T06:15:57.047Z,92.00
2023-02-12T06:18:24.252Z,92.20
2023-02-12T06:20:51.128Z,92.00
2023-02-12T06:23:17.904Z,91.90
2023-02-12T06:25:44.691Z,91.90
2023-02-12T06:28:11.637Z,92.10
2023-02-12T06:30:38.389Z,91.90
2023-02-12T06:33:05.147Z,92.00
2023-02-12T06:35:31.941Z,92.00
2023-02-12T06:37:58.693Z,92.00
2023-02-12T06:40:25.563Z,92.10
2023-02-12T06:42:52.400Z,92.00
2023-02-12T06:45:19.113Z,92.30
2023-02-12T06:47:46.180Z,92.10
2023-02-12T06:50:13.290Z,92.10
2023-02-12T06:52:40.022Z,92.00
2023-02-12T06:55:07.080Z,92.20
2023-02-12T06:57:33.890Z,92.10
2023-02-12T07:00:00.614Z,92.10
2023-02-12T07:02:27.569Z,92.10
2023-02-12T07:04:54.294Z,92.10
2023-02-12T07:07:21.032Z,92.00
2023-02-12T07:09:47.857Z,92.30
2023-02-12T07:12:14.622Z,92.20
2023-02-12T07:14:41.401Z,92.20
2023-02-12T07:17:09.731Z,92.00
2023-02-12T07:19:36.959Z,91.70
2023-02-12T07:22:03.902Z,91.70
2023-02-12T07:24:30.863Z,91.90
2023-02-12T07:26:57.636Z,91.90
2023-02-12T07:29:24.415Z,92.00
2023-02-12T07:31:51.290Z,92.10
2023-02-12T07:34:18.063Z,92.10
2023-02-12T07:36:44.852Z,92.10
2023-02-12T07:39:12.441Z,92.30
2023-02-12T07:41:39.242Z,92.30
2023-02-12T07:44:08.005Z,92.10
2023-02-12T07:46:36.595Z,92.20
2023-02-12T07:49:05.496Z,92.40
2023-02-12T07:51:33.143Z,92.30
2023-02-12T07:54:03.157Z,92.30
2023-02-12T07:56:32.598Z,92.50
2023-02-12T07:59:00.612Z,92.20
2023-02-12T08:01:31.624Z,92.30
2023-02-12T08:03:59.709Z,92.30
2023-02-12T08:06:27.949Z,92.20
2023-02-12T08:08:55.398Z,92.10
2023-02-12T08:11:22.829Z,92.20
2023-02-12T08:13:49.932Z,92.20
2023-02-12T08:16:21.317Z,92.20
2023-02-12T08:18:48.647Z,92.30
2023-02-12T08:21:19.793Z,92.20
2023-02-12T08:23:50.012Z,92.40
2023-02-12T08:26:18.544Z,92.30
2023-02-12T08:28:46.560Z,92.00
2023-02-12T08:31:17.896Z,92.20
2023-02-12T08:33:45.660Z,92.10
2023-02-12T08:36:14.664Z,92.20
2023-02-12T08:38:42.002Z,92.10
2023-02-12T08:41:10.181Z,92.10
2023-02-12T08:43:37.464Z,92.10
2023-02-12T08:46:04.461Z,92.30
2023-02-12T08:48:31.556Z,92.30
2023-02-12T08:51:08.773Z,92.20
2023-02-12T08:53:35.636Z,92.30
2023-02-12T08:56:02.658Z,92.10
2023-02-12T08:58:29.433Z,92.00
2023-02-12T09:00:56.269Z,92.20
2023-02-12T09:03:23.525Z,91.10
2023-02-12T09:05:50.461Z,90.60
2023-02-12T09:08:17.295Z,90.90
2023-02-12T09:10:44.520Z,90.50
2023-02-12T09:13:12.223Z,90.10
2023-02-12T09:15:39.460Z,90.20
2023-02-12T09:18:08.323Z,90.00
2023-02-12T09:20:37.399Z,90.30
2023-02-12T09:23:04.454Z,90.30
2023-02-12T09:25:31.246Z,90.00
2023-02-12T09:27:58.159Z,90.10
2023-02-12T09:30:24.984Z,90.10
2023-02-12T09:32:51.825Z,90.40
2023-02-12T09:35:19.208Z,90.10
2023-02-12T09:37:45.988Z,89.60
2023-02-12T09:40:39.157Z,89.40
2023-02-12T09:43:24.388Z,89.00
2023-02-12T09:45:56.249Z,89.40
2023-02-12T09:48:26.101Z,89.40
2023-02-12T09:50:54.514Z,88.80
2023-02-12T09:53:22.677Z,89.10
2023-02-12T09:55:49.454Z,88.90
2023-02-12T09:58:35.584Z,88.80
2023-02-12T10:01:10.162Z,88.50
2023-02-12T10:03:37.055Z,89.50
2023-02-12T10:06:05.705Z,90.00
2023-02-12T10:08:51.411Z,88.90
2023-02-12T10:11:24.461Z,89.20
2023-02-12T10:14:09.862Z,89.10
2023-02-12T10:16:48.799Z,88.60
2023-02-12T10:19:27.055Z,88.90
2023-02-12T10:22:06.332Z,88.20
2023-02-12T10:24:49.396Z,88.90
2023-02-12T10:27:17.807Z,88.30
2023-02-12T10:29:45.865Z,87.80
2023-02-12T10:32:27.491Z,87.80
2023-02-12T10:34:55.629Z,88.50
2023-02-12T10:37:40.304Z,88.80
2023-02-12T10:40:16.024Z,88.10
2023-02-12T10:42:44.213Z,87.70
2023-02-12T10:45:15.175Z,87.30
2023-02-12T10:47:41.983Z,87.10
2023-02-12T10:50:27.323Z,86.40
2023-02-12T10:52:55.895Z,86.00
2023-02-12T10:55:27.025Z,86.30
2023-02-12T10:57:54.137Z,86.50
2023-02-12T11:00:30.312Z,87.10
2023-02-12T11:03:05.314Z,87.60
2023-02-12T11:05:35.799Z,87.90
2023-02-12T11:08:03.398Z,88.20
2023-02-12T11:10:32.547Z,88.40
2023-02-12T11:13:00.146Z,88.40
2023-02-12T11:15:31.308Z,88.40
2023-02-12T11:18:00.344Z,88.40
2023-02-12T11:20:33.022Z,88.30
2023-02-12T11:23:03.877Z,88.10
2023-02-12T11:25:32.148Z,88.40
2023-02-12T11:28:12.612Z,88.70
2023-02-12T11:30:49.236Z,88.70
2023-02-12T11:33:17.489Z,88.80
2023-02-12T11:35:51.829Z,89.10
2023-02-12T11:38:23.742Z,89.00
2023-02-12T11:40:53.284Z,89.10
2023-02-12T11:43:20.470Z,89.20
2023-02-12T11:45:52.691Z,88.90
2023-02-12T11:48:27.445Z,89.10
2023-02-12T11:50:56.159Z,88.80
2023-02-12T11:53:28.692Z,88.90
2023-02-12T11:55:57.382Z,88.80
2023-02-12T11:58:25.132Z,88.90
2023-02-12T12:01:00.764Z,89.10
2023-02-12T12:03:45.855Z,89.10
2023-02-12T12:06:21.733Z,89.40
2023-02-12T12:08:56.213Z,89.40
2023-02-12T12:11:26.150Z,89.60
2023-02-12T12:14:04.058Z,89.50
2023-02-12T12:17:08.182Z,89.80
2023-02-12T12:19:53.369Z,89.60
2023-02-12T12:22:22.995Z,88.80
2023-02-12T12:24:49.695Z,88.20
2023-02-12T12:27:40.543Z,88.20
2023-02-12T12:30:11.424Z,88.30
2023-02-12T12:32:39.786Z,89.00
2023-02-12T12:35:10.886Z,89.20
2023-02-12T12:37:48.271Z,88.70
2023-02-12T12:40:29.483Z,89.00
2023-02-12T12:43:08.579Z,89.70
2023-02-12T12:45:47.221Z,89.10
2023-02-12T12:48:19.725Z,84.30
2023-02-12T12:50:46.490Z,82.30
2023-02-12T12:53:25.361Z,84.70
2023-02-12T12:55:58.691Z,81.70
2023-02-12T12:58:41.261Z,83.20
2023-02-12T13:01:26.593Z,80.70
2023-02-12T13:04:11.835Z,80.40
2023-02-12T13:06:47.609Z,80.10
2023-02-12T13:09:29.797Z,78.30
2023-02-12T13:11:56.535Z,78.80
2023-02-12T13:14:29.249Z,77.20
2023-02-12T13:16:56.037Z,76.50
2023-02-12T13:19:38.146Z,75.40
2023-02-12T13:22:13.737Z,74.80
2023-02-12T13:24:46.110Z,75.00
2023-02-12T13:27:16.151Z,75.00
2023-02-12T13:30:00.102Z,76.00
2023-02-12T13:32:36.976Z,75.90
2023-02-12T13:35:06.165Z,73.50
2023-02-12T13:37:38.885Z,73.30
2023-02-12T13:40:06.886Z,75.40
2023-02-12T13:42:36.464Z,75.40
2023-02-12T13:45:18.385Z,75.20
2023-02-12T13:48:00.131Z,76.00
2023-02-12T13:50:35.846Z,76.00
2023-02-12T13:53:08.542Z,76.40
2023-02-12T13:55:41.656Z,75.60
2023-02-12T13:58:27.396Z,74.70
2023-02-12T14:00:54.297Z,73.60
2023-02-12T14:03:25.272Z,75.50
2023-02-12T14:06:11.319Z,74.60
2023-02-12T14:08:42.741Z,75.00
2023-02-12T14:11:14.863Z,73.90
2023-02-12T14:14:07.765Z,72.90
2023-02-12T14:16:34.522Z,72.40
2023-02-12T14:19:20.058Z,71.60
2023-02-12T14:21:46.910Z,72.60
2023-02-12T14:24:32.586Z,72.30
2023-02-12T14:26:59.606Z,73.40
2023-02-12T14:29:26.562Z,71.60
2023-02-12T14:31:53.521Z,71.70
2023-02-12T14:34:20.451Z,72.70
2023-02-12T14:36:49.238Z,71.90
2023-02-12T14:39:18.828Z,71.40
2023-02-12T14:41:49.309Z,71.90
2023-02-12T14:44:23.314Z,74.00
2023-02-12T14:46:51.788Z,73.60
2023-02-12T14:49:30.527Z,72.60
2023-02-12T14:52:05.061Z,70.90
2023-02-12T14:54:36.931Z,68.90
2023-02-12T14:57:08.773Z,70.30
2023-02-12T14:59:39.762Z,68.40
2023-02-12T15:02:08.120Z,70.00
2023-02-12T15:04:38.490Z,68.70
2023-02-12T15:07:08.545Z,68.40
2023-02-12T15:09:39.015Z,69.20
2023-02-12T15:12:09.836Z,69.10
2023-02-12T15:14:40.039Z,69.10
2023-02-12T15:17:12.564Z,69.80
2023-02-12T15:20:02.678Z,72.30
2023-02-12T15:22:36.861Z,74.90
2023-02-12T15:25:23.193Z,77.00
2023-02-12T15:27:50.785Z,78.20
2023-02-12T15:30:25.951Z,79.50
2023-02-12T15:32:55.692Z,80.20
2023-02-12T15:35:27.054Z,81.00
2023-02-12T15:37:54.639Z,81.70
2023-02-12T15:40:21.635Z,82.40
2023-02-12T15:43:07.101Z,83.20
2023-02-12T15:45:35.188Z,83.40
2023-02-12T15:48:01.976Z,84.00
2023-02-12T15:50:29.768Z,84.10
2023-02-12T15:52:56.942Z,84.40
2023-02-12T15:55:25.854Z,84.50
2023-02-12T15:57:53.859Z,85.00
2023-02-12T16:00:32.333Z,85.20
2023-02-12T16:02:59.257Z,85.60
2023-02-12T16:05:26.517Z,85.30
2023-02-12T16:07:54.186Z,85.20
2023-02-12T16:10:21.345Z,85.60
2023-02-12T16:12:48.948Z,85.60
2023-02-12T16:15:31.703Z,85.90
2023-02-12T16:17:59.904Z,86.10
2023-02-12T16:20:28.223Z,86.20
2023-02-12T16:22:55.253Z,86.20
2023-02-12T16:25:27.802Z,86.40
2023-02-12T16:27:57.706Z,86.70
2023-02-12T16:30:42.818Z,86.90
2023-02-12T16:33:34.056Z,86.80
2023-02-12T16:36:05.470Z,86.90
2023-02-12T16:38:39.781Z,87.30
2023-02-12T16:41:15.749Z,87.40
2023-02-12T16:43:42.578Z,87.40
2023-02-12T16:46:09.392Z,87.30
2023-02-12T16:48:49.179Z,87.50
2023-02-12T16:51:30.540Z,87.40
2023-02-12T16:53:58.736Z,87.40
2023-02-12T16:56:26.515Z,87.60
2023-02-12T16:58:57.197Z,87.70
2023-02-12T17:01:27.622Z,87.80
2023-02-12T17:03:54.887Z,88.00
2023-02-12T17:06:24.598Z,87.90
2023-02-12T17:08:51.730Z,88.50
2023-02-12T17:11:21.588Z,88.10
2023-02-12T17:13:49.448Z,88.50
2023-02-12T17:16:29.834Z,88.30
2023-02-12T17:18:57.902Z,88.30
2023-02-12T17:21:29.621Z,88.20
2023-02-12T17:23:56.428Z,88.60
2023-02-12T17:26:24.096Z,88.70
2023-02-12T17:28:51.125Z,88.70
2023-02-12T17:31:18.062Z,88.50
2023-02-12T17:33:44.942Z,88.80
2023-02-12T17:36:12.452Z,88.70
2023-02-12T17:38:39.258Z,88.90
2023-02-12T17:41:10.613Z,88.90
2023-02-12T17:43:37.536Z,89.30
2023-02-12T17:46:11.326Z,89.20
2023-02-12T17:48:39.024Z,89.20
2023-02-12T17:51:07.707Z,89.60
2023-02-12T17:53:34.800Z,89.00
2023-02-12T17:56:02.117Z,89.20
2023-02-12T17:58:30.116Z,89.10
2023-02-12T18:00:58.094Z,89.40
2023-02-12T18:03:25.884Z,89.60
2023-02-12T18:05:53.720Z,89.60
2023-02-12T18:08:20.482Z,89.60
2023-02-12T18:10:47.680Z,89.70
2023-02-12T18:13:14.497Z,89.60
2023-02-12T18:15:41.669Z,89.60
2023-02-12T18:18:08.835Z,89.70
2023-02-12T18:20:35.870Z,89.60
2023-02-12T18:23:03.482Z,89.80
2023-02-12T18:25:30.442Z,89.70
2023-02-12T18:27:57.431Z,89.80
2023-02-12T18:30:24.441Z,89.80
2023-02-12T18:32:51.345Z,89.90
2023-02-12T18:35:21.863Z,89.90
2023-02-12T18:37:48.656Z,90.00
2023-02-12T18:40:15.778Z,90.00
2023-02-12T18:42:42.645Z,90.20
2023-02-12T18:45:09.615Z,90.10
2023-02-12T18:47:36.752Z,90.10
2023-02-12T18:50:03.959Z,90.20
2023-02-12T18:52:32.076Z,90.30
2023-02-12T18:54:59.296Z,90.20
2023-02-12T18:57:27.134Z,90.00
2023-02-12T18:59:53.824Z,90.20
2023-02-12T19:02:20.755Z,90.30
2023-02-12T19:04:47.717Z,90.20
2023-02-12T19:07:14.594Z,90.10
2023-02-12T19:09:41.436Z,90.30
2023-02-12T19:12:08.992Z,90.20
2023-02-12T19:14:35.837Z,90.20
2023-02-12T19:17:02.763Z,90.20
2023-02-12T19:19:29.642Z,90.20
2023-02-12T19:21:56.372Z,90.20
2023-02-12T19:24:23.239Z,90.20
2023-02-12T19:26:51.279Z,90.20
2023-02-12T19:29:18.471Z,90.30
2023-02-12T19:31:46.027Z,90.30
2023-02-12T19:34:16.022Z,90.40
2023-02-12T19:36:43.365Z,90.20
2023-02-12T19:39:10.539Z,90.30
2023-02-12T19:41:41.167Z,90.40
2023-02-12T19:44:17.982Z,90.20
2023-02-12T19:46:48.004Z,90.30
2023-02-12T19:49:17.421Z,90.30
2023-02-12T19:51:45.796Z,90.30
2023-02-12T19:54:14.249Z,90.30
2023-02-12T19:56:43.158Z,90.40
2023-02-12T19:59:13.143Z,90.40
2023-02-12T20:01:41.215Z,90.40
2023-02-12T20:04:08.436Z,90.60
2023-02-12T20:06:40.423Z,90.50
2023-02-12T20:09:11.097Z,90.60
2023-02-12T20:11:39.685Z,90.50
2023-02-12T20:14:08.244Z,90.60
2023-02-12T20:16:38.277Z,90.70
2023-02-12T20:19:15.179Z,90.70
2023-02-12T20:21:47.459Z,90.50
2023-02-12T20:24:18.120Z,90.60
2023-02-12T20:26:45.865Z,90.60
2023-02-12T20:29:13.084Z,90.70
2023-02-12T20:31:40.436Z,90.80
2023-02-12T20:34:11.786Z,90.90
2023-02-12T20:36:39.708Z,90.90
2023-02-12T20:39:09.685Z,91.00
2023-02-12T20:41:38.728Z,90.90
2023-02-12T20:44:10.032Z,91.00
2023-02-12T20:46:44.875Z,91.00
2023-02-12T20:49:17.145Z,90.80
2023-02-12T20:51:47.925Z,91.00
2023-02-12T20:54:15.896Z,91.20
2023-02-12T20:56:47.278Z,91.20
2023-02-12T20:59:17.640Z,91.20
2023-02-12T21:01:45.702Z,91.10
2023-02-12T21:04:16.019Z,91.20
2023-02-12T21:06:43.971Z,91.30
2023-02-12T21:09:16.989Z,91.20
2023-02-12T21:11:46.466Z,91.20
2023-02-12T21:14:24.207Z,91.20
2023-02-12T21:16:55.916Z,91.20
2023-02-12T21:19:27.043Z,91.10
2023-02-12T21:21:56.075Z,91.60
2023-02-12T21:24:26.848Z,91.20
2023-02-12T21:26:56.708Z,91.10
2023-02-12T21:29:28.446Z,91.20
2023-02-12T21:31:56.130Z,91.30
2023-02-12T21:34:27.074Z,91.40
2023-02-12T21:36:55.918Z,91.20
2023-02-12T21:39:28.853Z,91.20
2023-02-12T21:42:00.952Z,91.30
2023-02-12T21:44:27.780Z,91.30
2023-02-12T21:46:54.962Z,91.30
2023-02-12T21:49:28.520Z,91.30
2023-02-12T21:51:56.974Z,91.20
2023-02-12T21:54:24.314Z,91.30
2023-02-12T21:56:51.393Z,91.20
2023-02-12T21:59:18.380Z,91.10
2023-02-12T22:01:47.758Z,91.30
2023-02-12T22:04:14.891Z,91.20
2023-02-12T22:06:43.097Z,91.30
2023-02-12T22:09:11.386Z,91.40
2023-02-12T22:11:39.112Z,91.20
2023-02-12T22:14:07.255Z,91.30
2023-02-12T22:16:34.989Z,91.30
2023-02-12T22:19:02.143Z,91.30
2023-02-12T22:21:29.689Z,91.30
2023-02-12T22:23:57.567Z,91.40
2023-02-12T22:26:25.966Z,91.50
2023-02-12T22:28:54.192Z,91.40
2023-02-12T22:31:23.213Z,91.60
2023-02-12T22:33:50.914Z,91.40
2023-02-12T22:36:25.170Z,91.50
2023-02-12T22:38:52.970Z,91.60
2023-02-12T22:41:19.732Z,91.40
2023-02-12T22:43:46.681Z,91.60
2023-02-12T22:46:13.926Z,91.70
2023-02-12T22:48:41.162Z,91.80
2023-02-12T22:51:28.170Z,91.70
2023-02-12T22:53:55.486Z,91.60
2023-02-12T22:56:22.817Z,91.60
2023-02-12T22:58:53.436Z,91.50
2023-02-12T23:01:21.159Z,91.50
2023-02-12T23:03:48.085Z,91.40
2023-02-12T23:06:16.255Z,91.70
2023-02-12T23:08:43.171Z,91.60
2023-02-12T23:11:10.911Z,91.60
2023-02-12T23:13:37.897Z,91.70
2023-02-12T23:16:04.839Z,91.70
2023-02-12T23:18:31.932Z,91.70
2023-02-12T23:20:59.086Z,91.90
2023-02-12T23:23:26.133Z,91.70
2023-02-12T23:25:54.504Z,91.90
2023-02-12T23:28:22.080Z,91.80
2023-02-12T23:30:49.373Z,91.70
2023-02-12T23:33:16.215Z,91.80
2023-02-12T23:35:44.193Z,91.80
2023-02-12T23:38:11.084Z,92.00
2023-02-12T23:40:37.896Z,91.90
2023-02-12T23:43:04.868Z,92.00
2023-02-12T23:45:31.858Z,91.90
2023-02-12T23:47:58.781Z,92.00
2023-02-12T23:50:25.722Z,91.90
2023-02-12T23:52:52.496Z,92.10
2023-02-12T23:55:20.296Z,92.00
2023-02-12T23:57:47.811Z,92.10
